Black Star — 9HA2911 — position and weather

sailwx.info

Track history (hours):
 
Tides and Currents Weather Stations Pressure Air Temp Water Temp Dewpoint Dewpoint Depression Visibility Wind Speed Wind Dir Waves Ship Positions

Black Star

Last reported at 2017-Oct-16 17:04 UTC. Time now 2017-Oct-17 22:45 UTC.
Position N 37°21' W 009°36'.

Length 129 m; draft 5.4 m.

Type: Ship. MMSI: 256714000.

Date/timePositionNaut miles runAvg speedWind from/ knotsBaromVisibWave heightAir tempDewpointWater temp
2017-Oct-16 17:04N 37°21' W 009°36'113.4
2017-Oct-16 17:00N 37°22' W 009°36'813.4
2017-Oct-16 16:23N 37°30' W 009°36'513.2
2017-Oct-16 16:01N 37°35' W 009°36'713.1
2017-Oct-16 15:31N 37°42' W 009°36'713.3
2017-Oct-16 15:01N 37°49' W 009°36'713.4
2017-Oct-16 14:30N 37°55' W 009°36'1413.6
2017-Oct-16 13:31N 38°09' W 009°36'713.5
2017-Oct-16 13:01N 38°16' W 009°36'713.3
2017-Oct-16 12:30N 38°22' W 009°36'713.5
2017-Oct-16 12:00N 38°29' W 009°33'612.6
2017-Oct-16 11:30N 38°33' W 009°28'612.7
2017-Oct-16 11:00N 38°38' W 009°22'611.1
2017-Oct-16 10:31N 38°41' W 009°16'3 6.2
2017-Oct-16 10:00N 38°41' W 009°12'5 9.9
2017-Oct-16 09:30N 38°41' W 009°06'1 0.3
2017-Oct-16 03:58N 38°40' W 009°04'0 0.0
2017-Oct-15 21:16N 38°40' W 009°04'0 0.0
2017-Oct-15 20:52N 38°40' W 009°04'0 0.0
2017-Oct-15 18:28N 38°40' W 009°04'0 0.0
2017-Oct-15 17:58N 38°40' W 009°04'0 0.0
2017-Oct-15 16:43N 38°40' W 009°04'0 0.0
2017-Oct-15 16:10N 38°40' W 009°04'0 0.0
2017-Oct-15 14:58N 38°40' W 009°04'0 0.0
2017-Oct-15 13:55N 38°40' W 009°04'0 0.0
2017-Oct-15 11:52N 38°40' W 009°04'0 0.0
2017-Oct-15 11:28N 38°40' W 009°04'0 0.0
2017-Oct-15 08:10N 38°40' W 009°04'0 0.0
2017-Oct-15 04:04N 38°40' W 009°04'0 0.0
2017-Oct-15 03:46N 38°40' W 009°04'0 0.0
2017-Oct-15 03:22N 38°40' W 009°04'0 0.0
2017-Oct-15 02:49N 38°40' W 009°04'0 0.0
2017-Oct-15 02:22N 38°40' W 009°04'0 0.0
2017-Oct-15 01:40N 38°40' W 009°04'0 0.0
2017-Oct-15 00:52N 38°40' W 009°04'0 0.0
2017-Oct-14 23:40N 38°40' W 009°04'0 0.0
2017-Oct-14 22:04N 38°40' W 009°04'0 0.0
2017-Oct-14 21:46N 38°40' W 009°04'0 0.0
2017-Oct-14 21:28N 38°40' W 009°04'0 0.0
2017-Oct-14 19:58N 38°40' W 009°04'0 0.0
2017-Oct-14 19:04N 38°40' W 009°04'0 0.0
2017-Oct-14 18:58N 38°40' W 009°04'0 0.0
2017-Oct-14 16:52N 38°40' W 009°04'0 0.0
2017-Oct-14 15:13N 38°40' W 009°04'0 0.0
2017-Oct-14 14:46N 38°40' W 009°04'0 0.0
2017-Oct-14 14:25N 38°40' W 009°04'0 0.0
2017-Oct-14 13:46N 38°40' W 009°04'0 0.0
2017-Oct-14 13:28N 38°40' W 009°04'0 0.0
2017-Oct-14 12:19N 38°40' W 009°04'0 0.0
2017-Oct-14 11:37N 38°40' W 009°04'0 0.0
2017-Oct-14 11:13N 38°40' W 009°04'0 0.0
2017-Oct-14 10:04N 38°40' W 009°04'0 0.0
2017-Oct-14 09:40N 38°40' W 009°04'0 0.0
2017-Oct-14 09:28N 38°40' W 009°04'0 0.0
2017-Oct-14 09:00N 38°40' W 009°04'0 0.0
2017-Oct-14 08:30N 38°40' W 009°04'3 6.3
2017-Oct-14 08:00N 38°41' W 009°08'713.4
2017-Oct-14 07:30N 38°41' W 009°17'612.1
2017-Oct-14 07:00N 38°40' W 009°24'2 4.9
2017-Oct-14 06:30N 38°40' W 009°27'3 5.8
2017-Oct-14 06:00N 38°39' W 009°31'3 5.7
2017-Oct-14 05:30N 38°37' W 009°34'3 5.9
2017-Oct-14 05:00N 38°36' W 009°37'4 7.0
2017-Oct-14 04:30N 38°34' W 009°41'4 8.8
2017-Oct-14 04:00N 38°33' W 009°47'5 9.7
2017-Oct-14 03:30N 38°31' W 009°53'510.0
2017-Oct-14 03:00N 38°31' W 009°59'510.2
2017-Oct-14 02:30N 38°32' W 010°05'4 8.8
2017-Oct-14 02:00N 38°34' W 010°10'510.4
2017-Oct-14 01:30N 38°39' W 010°12'510.2
2017-Oct-14 01:00N 38°44' W 010°12'510.1
2017-Oct-14 00:30N 38°50' W 010°11'510.8
2017-Oct-14 00:00N 38°55' W 010°11'611.1
2017-Oct-13 23:30N 39°00' W 010°11'611.3
2017-Oct-13 23:00N 39°06' W 010°11'510.9
2017-Oct-13 22:30N 39°11' W 010°11'510.9
2017-Oct-13 22:00N 39°17' W 010°10'511.0
2017-Oct-13 21:30N 39°22' W 010°09'510.9
2017-Oct-13 21:00N 39°28' W 010°09'510.7
2017-Oct-13 20:30N 39°33' W 010°10'611.1
2017-Oct-13 20:00N 39°39' W 010°10'611.2
2017-Oct-13 19:30N 39°44' W 010°10'611.8
2017-Oct-13 19:00N 39°50' W 010°09'714.3
2017-Oct-13 18:31N 39°57' W 010°09'714.4
2017-Oct-13 18:00N 40°05' W 010°09'714.0
2017-Oct-13 17:31N 40°12' W 010°09'713.5
2017-Oct-13 17:00N 40°19' W 010°09'612.4
2017-Oct-13 16:31N 40°25' W 010°09'712.9
2017-Oct-13 16:00N 40°31' W 010°09'713.9
2017-Oct-13 15:30N 40°38' W 010°10'713.9
2017-Oct-13 15:00N 40°45' W 010°10'714.0
2017-Oct-13 14:30N 40°52' W 010°10'1313.6
2017-Oct-13 13:31N 41°05' W 010°10'013.5
2017-Oct-13 13:30N 41°06' W 010°10'2213.5
2017-Oct-13 11:52N 41°28' W 010°10'713.8
2017-Oct-13 11:21N 41°35' W 010°10'200 9.9
2017-Oct-12 15:08N 43°58' W 006°60'213.2
2017-Oct-12 15:01N 43°57' W 006°58'1013.3
2017-Oct-12 14:15N 43°55' W 006°44'1313.2
2017-Oct-12 13:15N 43°53' W 006°26'412.9
2017-Oct-12 12:56N 43°52' W 006°20'613.0
2017-Oct-12 12:28N 43°51' W 006°12'612.3
2017-Oct-12 12:01N 43°47' W 006°06'713.0
2017-Oct-12 11:30N 43°41' W 006°02'612.5
2017-Oct-12 10:59N 43°36' W 005°57'1 0.0
2017-Oct-10 23:56N 43°37' W 005°58'0 0.0
2017-Oct-10 23:29N 43°37' W 005°58'0 0.0
2017-Oct-10 22:56N 43°37' W 005°58'0 0.0
2017-Oct-10 22:26N 43°37' W 005°58'0 0.0
2017-Oct-10 21:59N 43°37' W 005°58'0 0.0
2017-Oct-10 21:29N 43°37' W 005°58'0 0.0
2017-Oct-10 20:59N 43°37' W 005°58'0 0.0
2017-Oct-10 20:29N 43°37' W 005°58'0 0.1
2017-Oct-10 19:59N 43°37' W 005°59'0 0.0
2017-Oct-10 19:29N 43°37' W 005°59'0 0.0
2017-Oct-10 18:56N 43°37' W 005°59'0 0.0
2017-Oct-10 18:29N 43°37' W 005°59'0 0.0
2017-Oct-10 17:59N 43°37' W 005°59'0 0.0
2017-Oct-10 17:26N 43°37' W 005°59'0 0.0
2017-Oct-10 16:59N 43°37' W 005°59'0 0.0
2017-Oct-10 16:29N 43°37' W 005°59'0 0.0
2017-Oct-10 15:50N 43°37' W 005°59'0 0.0
2017-Oct-10 14:50N 43°37' W 005°59'0 0.0
2017-Oct-10 13:53N 43°37' W 005°59'0 0.0
2017-Oct-10 13:29N 43°37' W 005°59'0 0.0
2017-Oct-10 12:59N 43°37' W 005°59'0 0.0
2017-Oct-10 12:29N 43°37' W 005°59'0 0.0
2017-Oct-10 11:59N 43°37' W 005°59'0 0.1
2017-Oct-10 11:29N 43°37' W 005°58'0 0.0
2017-Oct-10 10:44N 43°37' W 005°58'0 0.2
2017-Oct-10 10:20N 43°37' W 005°58'0 0.0
2017-Oct-10 04:32N 43°37' W 005°58'0 0.1
2017-Oct-10 04:29N 43°37' W 005°58'0 0.0
2017-Oct-10 03:44N 43°37' W 005°58'0 0.0
2017-Oct-10 03:29N 43°37' W 005°58'0 0.0
2017-Oct-10 02:59N 43°37' W 005°58'0 0.0
2017-Oct-10 02:20N 43°37' W 005°58'0 0.0
2017-Oct-10 01:50N 43°37' W 005°58'0 0.1
2017-Oct-10 01:26N 43°37' W 005°58'0 0.0
2017-Oct-10 00:56N 43°37' W 005°58'0 0.0
2017-Oct-09 23:41N 43°37' W 005°58'0 0.0
2017-Oct-09 23:14N 43°37' W 005°58'0 0.0
2017-Oct-09 22:59N 43°37' W 005°58'0 0.0
2017-Oct-09 22:26N 43°37' W 005°58'0 0.0
2017-Oct-09 21:59N 43°37' W 005°58'0 0.0
2017-Oct-09 21:26N 43°37' W 005°58'0 0.1
2017-Oct-09 20:59N 43°37' W 005°59'0 0.0
2017-Oct-09 20:29N 43°37' W 005°58'0 0.0
2017-Oct-09 19:59N 43°37' W 005°59'0 0.0
2017-Oct-09 19:14N 43°37' W 005°59'0 0.0
2017-Oct-09 18:50N 43°37' W 005°59'0 0.1
2017-Oct-09 18:30N 43°37' W 005°59'1 1.8
2017-Oct-09 18:00N 43°38' W 005°58'5 9.7
2017-Oct-09 17:30N 43°42' W 005°57'612.4
2017-Oct-09 17:00N 43°47' W 005°51'713.8
2017-Oct-09 16:30N 43°51' W 005°44'714.3
2017-Oct-09 16:01N 43°51' W 005°34'714.6
2017-Oct-09 15:31N 43°51' W 005°24'714.4
2017-Oct-09 15:00N 43°50' W 005°14'714.3
2017-Oct-09 14:31N 43°50' W 005°04'714.4
2017-Oct-09 14:00N 43°49' W 004°54'814.3
2017-Oct-09 13:28N 43°49' W 004°43'712.9
2017-Oct-09 12:56N 43°49' W 004°34'712.9
2017-Oct-09 12:25N 43°48' W 004°24'513.0
2017-Oct-09 12:00N 43°48' W 004°17'612.9
2017-Oct-09 11:31N 43°47' W 004°08'612.9
2017-Oct-09 11:01N 43°47' W 003°59'612.4
2017-Oct-09 10:31N 43°47' W 003°51'612.4
2017-Oct-09 10:01N 43°47' W 003°42'713.0
2017-Oct-09 09:30N 43°46' W 003°33'612.8
2017-Oct-09 09:00N 43°45' W 003°24'612.1
2017-Oct-09 08:30N 43°42' W 003°18'713.0
2017-Oct-09 08:00N 43°36' W 003°13'611.8
2017-Oct-09 07:30N 43°30' W 003°11'510.6
2017-Oct-09 07:00N 43°26' W 003°07'4 8.3
2017-Oct-09 06:31N 43°22' W 003°05'0 0.0
2017-Oct-09 05:58N 43°22' W 003°05'0 0.0
2017-Oct-09 05:30N 43°22' W 003°05'0 0.0
2017-Oct-09 04:55N 43°22' W 003°05'0 0.0
2017-Oct-09 04:28N 43°22' W 003°05'0 0.0
2017-Oct-09 03:55N 43°22' W 003°05'0 0.0
2017-Oct-09 03:28N 43°22' W 003°05'0 0.0
2017-Oct-09 02:58N 43°22' W 003°05'0 0.0
2017-Oct-09 02:28N 43°22' W 003°05'0 0.0
2017-Oct-09 01:58N 43°22' W 003°05'0 0.0
2017-Oct-09 01:28N 43°22' W 003°05'0 0.0
2017-Oct-09 00:58N 43°22' W 003°05'0 0.0
2017-Oct-09 00:28N 43°22' W 003°05'0 0.0
2017-Oct-08 23:55N 43°22' W 003°05'0 0.0
2017-Oct-08 23:28N 43°22' W 003°05'0 0.0
2017-Oct-08 22:58N 43°22' W 003°05'0 0.0
2017-Oct-08 22:28N 43°22' W 003°05'0 0.0
2017-Oct-08 21:58N 43°22' W 003°05'0 0.0
2017-Oct-08 14:32N 43°22' W 003°05'0 0.0
2017-Oct-08 14:29N 43°22' W 003°05'0 0.0
2017-Oct-08 13:59N 43°22' W 003°05'0 0.0
2017-Oct-08 13:29N 43°22' W 003°05'0 0.0
2017-Oct-08 12:57N 43°22' W 003°05'0 0.1
2017-Oct-08 12:30N 43°22' W 003°05'2 4.1
2017-Oct-08 12:00N 43°24' W 003°06'3 5.9
2017-Oct-08 11:30N 43°27' W 003°04'612.1
2017-Oct-08 11:00N 43°31' W 002°58'612.4
2017-Oct-08 10:30N 43°32' W 002°50'612.4
2017-Oct-08 10:01N 43°34' W 002°42'612.4
2017-Oct-08 09:30N 43°35' W 002°33'612.5
2017-Oct-08 09:00N 43°35' W 002°25'713.4
2017-Oct-08 08:30N 43°36' W 002°15'1913.4
2017-Oct-08 07:05N 43°36' W 001°49'713.2
2017-Oct-08 06:35N 43°34' W 001°41'212.6
2017-Oct-08 06:25N 43°33' W 001°38'6 1.2
2017-Oct-08 01:58N 43°32' W 001°30'0 0.0
2017-Oct-08 01:28N 43°32' W 001°30'0 0.0
2017-Oct-08 00:58N 43°32' W 001°30'0 0.0
2017-Oct-08 00:28N 43°32' W 001°30'0 0.0
2017-Oct-07 23:52N 43°32' W 001°30'0 0.0
2017-Oct-07 23:25N 43°32' W 001°30'0 0.0
2017-Oct-07 22:52N 43°32' W 001°30'0 0.0
2017-Oct-07 22:28N 43°32' W 001°30'0 0.0
2017-Oct-07 22:00N 43°32' W 001°30'0 0.0
2017-Oct-07 21:30N 43°32' W 001°30'0 0.0
2017-Oct-07 21:00N 43°32' W 001°30'0 0.0
2017-Oct-07 20:24N 43°32' W 001°30'0 0.0
2017-Oct-07 20:00N 43°32' W 001°30'0 0.0
2017-Oct-07 19:30N 43°32' W 001°30'0 0.0
2017-Oct-07 19:00N 43°32' W 001°30'0 0.0
2017-Oct-07 18:30N 43°32' W 001°30'0 0.0
2017-Oct-07 18:00N 43°32' W 001°30'0 0.0
2017-Oct-07 17:30N 43°32' W 001°30'0 0.0
2017-Oct-07 17:00N 43°32' W 001°30'0 0.0
2017-Oct-07 16:28N 43°32' W 001°30'0 0.0
2017-Oct-07 15:59N 43°32' W 001°30'0 0.0
2017-Oct-07 15:26N 43°32' W 001°30'0 0.0
2017-Oct-07 14:59N 43°32' W 001°30'0 0.0
2017-Oct-07 14:28N 43°32' W 001°30'0 0.0
2017-Oct-07 13:58N 43°32' W 001°30'0 0.0
2017-Oct-07 13:25N 43°32' W 001°30'0 0.0
2017-Oct-07 13:00N 43°32' W 001°30'0 0.0
2017-Oct-07 12:30N 43°32' W 001°30'0 0.0
2017-Oct-07 12:00N 43°32' W 001°30'0 0.0
2017-Oct-07 11:30N 43°32' W 001°30'0 0.0
2017-Oct-07 10:59N 43°32' W 001°30'0 0.0
2017-Oct-07 10:29N 43°32' W 001°30'0 0.0
2017-Oct-07 09:59N 43°32' W 001°30'0 0.0
2017-Oct-07 09:23N 43°32' W 001°30'0 0.0
2017-Oct-07 08:58N 43°32' W 001°30'0 0.0
2017-Oct-07 08:30N 43°32' W 001°30'0 0.0
2017-Oct-07 07:59N 43°32' W 001°30'0 0.0
2017-Oct-07 07:26N 43°32' W 001°30'0 0.0
2017-Oct-07 07:00N 43°32' W 001°30'0 0.0
2017-Oct-07 06:30N 43°32' W 001°30'1 1.1
2017-Oct-07 06:00N 43°32' W 001°31'3 6.0
2017-Oct-07 05:31N 43°33' W 001°35'4 7.1
2017-Oct-07 05:00N 43°34' W 001°40'611.7
2017-Oct-07 04:30N 43°37' W 001°47'4 8.3
2017-Oct-07 04:00N 43°38' W 001°52'1 1.2
2017-Oct-07 03:30N 43°38' W 001°53'1 1.5
2017-Oct-07 03:00N 43°38' W 001°52'1 2.1
2017-Oct-07 02:30N 43°39' W 001°53'1 1.8
2017-Oct-07 02:00N 43°38' W 001°53'1 2.0
2017-Oct-07 01:30N 43°39' W 001°53'1 1.6
2017-Oct-07 01:01N 43°38' W 001°53'1 1.1
2017-Oct-07 00:30N 43°39' W 001°54'1 2.3
2017-Oct-07 00:00N 43°40' W 001°55'1 1.4
2017-Oct-06 23:30N 43°40' W 001°55'1 2.4
2017-Oct-06 23:00N 43°39' W 001°55'1 2.2
2017-Oct-06 22:30N 43°38' W 001°54'0 0.2
2017-Oct-06 22:01N 43°38' W 001°54'0 0.6
2017-Oct-06 21:31N 43°38' W 001°54'1 2.7
2017-Oct-06 21:01N 43°38' W 001°52'0 0.2
2017-Oct-06 20:30N 43°38' W 001°52'0 0.4
2017-Oct-06 20:00N 43°38' W 001°52'0 0.4
2017-Oct-06 19:30N 43°38' W 001°53'0 0.2
2017-Oct-06 19:00N 43°38' W 001°53'1 2.5
2017-Oct-06 18:30N 43°37' W 001°51'0 0.5
2017-Oct-06 18:00N 43°38' W 001°51'1 2.2
2017-Oct-06 17:30N 43°38' W 001°52'  
Track history (hours):
 
Tides and Currents Weather Stations Pressure Air Temp Water Temp Dewpoint Dewpoint Depression Visibility Wind Speed Wind Dir Waves Ship Positions

Black Star

Last reported at 2017-Oct-16 17:04 UTC. Time now 2017-Oct-17 22:45 UTC.
Position N 37°21' W 009°36'.

Length 129 m; draft 5.4 m.

Type: Ship. MMSI: 256714000.

Date/timePositionNaut miles runAvg speedWind from/ knotsBaromVisibWave heightAir tempDewpointWater temp
2017-Oct-16 17:04N 37°21' W 009°36'113.4
2017-Oct-16 17:00N 37°22' W 009°36'813.4
2017-Oct-16 16:23N 37°30' W 009°36'513.2
2017-Oct-16 16:01N 37°35' W 009°36'713.1
2017-Oct-16 15:31N 37°42' W 009°36'713.3
2017-Oct-16 15:01N 37°49' W 009°36'713.4
2017-Oct-16 14:30N 37°55' W 009°36'1413.6
2017-Oct-16 13:31N 38°09' W 009°36'713.5
2017-Oct-16 13:01N 38°16' W 009°36'713.3
2017-Oct-16 12:30N 38°22' W 009°36'713.5
2017-Oct-16 12:00N 38°29' W 009°33'612.6
2017-Oct-16 11:30N 38°33' W 009°28'612.7
2017-Oct-16 11:00N 38°38' W 009°22'611.1
2017-Oct-16 10:31N 38°41' W 009°16'3 6.2
2017-Oct-16 10:00N 38°41' W 009°12'5 9.9
2017-Oct-16 09:30N 38°41' W 009°06'1 0.3
2017-Oct-16 03:58N 38°40' W 009°04'0 0.0
2017-Oct-15 21:16N 38°40' W 009°04'0 0.0
2017-Oct-15 20:52N 38°40' W 009°04'0 0.0
2017-Oct-15 18:28N 38°40' W 009°04'0 0.0
2017-Oct-15 17:58N 38°40' W 009°04'0 0.0
2017-Oct-15 16:43N 38°40' W 009°04'0 0.0
2017-Oct-15 16:10N 38°40' W 009°04'0 0.0
2017-Oct-15 14:58N 38°40' W 009°04'0 0.0
2017-Oct-15 13:55N 38°40' W 009°04'0 0.0
2017-Oct-15 11:52N 38°40' W 009°04'0 0.0
2017-Oct-15 11:28N 38°40' W 009°04'0 0.0
2017-Oct-15 08:10N 38°40' W 009°04'0 0.0
2017-Oct-15 04:04N 38°40' W 009°04'0 0.0
2017-Oct-15 03:46N 38°40' W 009°04'0 0.0
2017-Oct-15 03:22N 38°40' W 009°04'0 0.0
2017-Oct-15 02:49N 38°40' W 009°04'0 0.0
2017-Oct-15 02:22N 38°40' W 009°04'0 0.0
2017-Oct-15 01:40N 38°40' W 009°04'0 0.0
2017-Oct-15 00:52N 38°40' W 009°04'0 0.0
2017-Oct-14 23:40N 38°40' W 009°04'0 0.0
2017-Oct-14 22:04N 38°40' W 009°04'0 0.0
2017-Oct-14 21:46N 38°40' W 009°04'0 0.0
2017-Oct-14 21:28N 38°40' W 009°04'0 0.0
2017-Oct-14 19:58N 38°40' W 009°04'0 0.0
2017-Oct-14 19:04N 38°40' W 009°04'0 0.0
2017-Oct-14 18:58N 38°40' W 009°04'0 0.0
2017-Oct-14 16:52N 38°40' W 009°04'0 0.0
2017-Oct-14 15:13N 38°40' W 009°04'0 0.0
2017-Oct-14 14:46N 38°40' W 009°04'0 0.0
2017-Oct-14 14:25N 38°40' W 009°04'0 0.0
2017-Oct-14 13:46N 38°40' W 009°04'0 0.0
2017-Oct-14 13:28N 38°40' W 009°04'0 0.0
2017-Oct-14 12:19N 38°40' W 009°04'0 0.0
2017-Oct-14 11:37N 38°40' W 009°04'0 0.0
2017-Oct-14 11:13N 38°40' W 009°04'0 0.0
2017-Oct-14 10:04N 38°40' W 009°04'0 0.0
2017-Oct-14 09:40N 38°40' W 009°04'0 0.0
2017-Oct-14 09:28N 38°40' W 009°04'0 0.0
2017-Oct-14 09:00N 38°40' W 009°04'0 0.0
2017-Oct-14 08:30N 38°40' W 009°04'3 6.3
2017-Oct-14 08:00N 38°41' W 009°08'713.4
2017-Oct-14 07:30N 38°41' W 009°17'612.1
2017-Oct-14 07:00N 38°40' W 009°24'2 4.9
2017-Oct-14 06:30N 38°40' W 009°27'3 5.8
2017-Oct-14 06:00N 38°39' W 009°31'3 5.7
2017-Oct-14 05:30N 38°37' W 009°34'3 5.9
2017-Oct-14 05:00N 38°36' W 009°37'4 7.0
2017-Oct-14 04:30N 38°34' W 009°41'4 8.8
2017-Oct-14 04:00N 38°33' W 009°47'5 9.7
2017-Oct-14 03:30N 38°31' W 009°53'510.0
2017-Oct-14 03:00N 38°31' W 009°59'510.2
2017-Oct-14 02:30N 38°32' W 010°05'4 8.8
2017-Oct-14 02:00N 38°34' W 010°10'510.4
2017-Oct-14 01:30N 38°39' W 010°12'510.2
2017-Oct-14 01:00N 38°44' W 010°12'510.1
2017-Oct-14 00:30N 38°50' W 010°11'510.8
2017-Oct-14 00:00N 38°55' W 010°11'611.1
2017-Oct-13 23:30N 39°00' W 010°11'611.3
2017-Oct-13 23:00N 39°06' W 010°11'510.9
2017-Oct-13 22:30N 39°11' W 010°11'510.9
2017-Oct-13 22:00N 39°17' W 010°10'511.0
2017-Oct-13 21:30N 39°22' W 010°09'510.9
2017-Oct-13 21:00N 39°28' W 010°09'510.7
2017-Oct-13 20:30N 39°33' W 010°10'611.1
2017-Oct-13 20:00N 39°39' W 010°10'611.2
2017-Oct-13 19:30N 39°44' W 010°10'611.8
2017-Oct-13 19:00N 39°50' W 010°09'714.3
2017-Oct-13 18:31N 39°57' W 010°09'714.4
2017-Oct-13 18:00N 40°05' W 010°09'714.0
2017-Oct-13 17:31N 40°12' W 010°09'713.5
2017-Oct-13 17:00N 40°19' W 010°09'612.4
2017-Oct-13 16:31N 40°25' W 010°09'712.9
2017-Oct-13 16:00N 40°31' W 010°09'713.9
2017-Oct-13 15:30N 40°38' W 010°10'713.9
2017-Oct-13 15:00N 40°45' W 010°10'714.0
2017-Oct-13 14:30N 40°52' W 010°10'1313.6
2017-Oct-13 13:31N 41°05' W 010°10'013.5
2017-Oct-13 13:30N 41°06' W 010°10'2213.5
2017-Oct-13 11:52N 41°28' W 010°10'713.8
2017-Oct-13 11:21N 41°35' W 010°10'200 9.9
2017-Oct-12 15:08N 43°58' W 006°60'213.2
2017-Oct-12 15:01N 43°57' W 006°58'1013.3
2017-Oct-12 14:15N 43°55' W 006°44'1313.2
2017-Oct-12 13:15N 43°53' W 006°26'412.9
2017-Oct-12 12:56N 43°52' W 006°20'613.0
2017-Oct-12 12:28N 43°51' W 006°12'612.3
2017-Oct-12 12:01N 43°47' W 006°06'713.0
2017-Oct-12 11:30N 43°41' W 006°02'612.5
2017-Oct-12 10:59N 43°36' W 005°57'1 0.0
2017-Oct-10 23:56N 43°37' W 005°58'0 0.0
2017-Oct-10 23:29N 43°37' W 005°58'0 0.0
2017-Oct-10 22:56N 43°37' W 005°58'0 0.0
2017-Oct-10 22:26N 43°37' W 005°58'0 0.0
2017-Oct-10 21:59N 43°37' W 005°58'0 0.0
2017-Oct-10 21:29N 43°37' W 005°58'0 0.0
2017-Oct-10 20:59N 43°37' W 005°58'0 0.0
2017-Oct-10 20:29N 43°37' W 005°58'0 0.1
2017-Oct-10 19:59N 43°37' W 005°59'0 0.0
2017-Oct-10 19:29N 43°37' W 005°59'0 0.0
2017-Oct-10 18:56N 43°37' W 005°59'0 0.0
2017-Oct-10 18:29N 43°37' W 005°59'0 0.0
2017-Oct-10 17:59N 43°37' W 005°59'0 0.0
2017-Oct-10 17:26N 43°37' W 005°59'0 0.0
2017-Oct-10 16:59N 43°37' W 005°59'0 0.0
2017-Oct-10 16:29N 43°37' W 005°59'0 0.0
2017-Oct-10 15:50N 43°37' W 005°59'0 0.0
2017-Oct-10 14:50N 43°37' W 005°59'0 0.0
2017-Oct-10 13:53N 43°37' W 005°59'0 0.0
2017-Oct-10 13:29N 43°37' W 005°59'0 0.0
2017-Oct-10 12:59N 43°37' W 005°59'0 0.0
2017-Oct-10 12:29N 43°37' W 005°59'0 0.0
2017-Oct-10 11:59N 43°37' W 005°59'0 0.1
2017-Oct-10 11:29N 43°37' W 005°58'0 0.0
2017-Oct-10 10:44N 43°37' W 005°58'0 0.2
2017-Oct-10 10:20N 43°37' W 005°58'0 0.0
2017-Oct-10 04:32N 43°37' W 005°58'0 0.1
2017-Oct-10 04:29N 43°37' W 005°58'0 0.0
2017-Oct-10 03:44N 43°37' W 005°58'0 0.0
2017-Oct-10 03:29N 43°37' W 005°58'0 0.0
2017-Oct-10 02:59N 43°37' W 005°58'0 0.0
2017-Oct-10 02:20N 43°37' W 005°58'0 0.0
2017-Oct-10 01:50N 43°37' W 005°58'0 0.1
2017-Oct-10 01:26N 43°37' W 005°58'0 0.0
2017-Oct-10 00:56N 43°37' W 005°58'0 0.0
2017-Oct-09 23:41N 43°37' W 005°58'0 0.0
2017-Oct-09 23:14N 43°37' W 005°58'0 0.0
2017-Oct-09 22:59N 43°37' W 005°58'0 0.0
2017-Oct-09 22:26N 43°37' W 005°58'0 0.0
2017-Oct-09 21:59N 43°37' W 005°58'0 0.0
2017-Oct-09 21:26N 43°37' W 005°58'0 0.1
2017-Oct-09 20:59N 43°37' W 005°59'0 0.0
2017-Oct-09 20:29N 43°37' W 005°58'0 0.0
2017-Oct-09 19:59N 43°37' W 005°59'0 0.0
2017-Oct-09 19:14N 43°37' W 005°59'0 0.0
2017-Oct-09 18:50N 43°37' W 005°59'0 0.1
2017-Oct-09 18:30N 43°37' W 005°59'1 1.8
2017-Oct-09 18:00N 43°38' W 005°58'5 9.7
2017-Oct-09 17:30N 43°42' W 005°57'612.4
2017-Oct-09 17:00N 43°47' W 005°51'713.8
2017-Oct-09 16:30N 43°51' W 005°44'714.3
2017-Oct-09 16:01N 43°51' W 005°34'714.6
2017-Oct-09 15:31N 43°51' W 005°24'714.4
2017-Oct-09 15:00N 43°50' W 005°14'714.3
2017-Oct-09 14:31N 43°50' W 005°04'714.4
2017-Oct-09 14:00N 43°49' W 004°54'814.3
2017-Oct-09 13:28N 43°49' W 004°43'712.9
2017-Oct-09 12:56N 43°49' W 004°34'712.9
2017-Oct-09 12:25N 43°48' W 004°24'513.0
2017-Oct-09 12:00N 43°48' W 004°17'612.9
2017-Oct-09 11:31N 43°47' W 004°08'612.9
2017-Oct-09 11:01N 43°47' W 003°59'612.4
2017-Oct-09 10:31N 43°47' W 003°51'612.4
2017-Oct-09 10:01N 43°47' W 003°42'713.0
2017-Oct-09 09:30N 43°46' W 003°33'612.8
2017-Oct-09 09:00N 43°45' W 003°24'612.1
2017-Oct-09 08:30N 43°42' W 003°18'713.0
2017-Oct-09 08:00N 43°36' W 003°13'611.8
2017-Oct-09 07:30N 43°30' W 003°11'510.6
2017-Oct-09 07:00N 43°26' W 003°07'4 8.3
2017-Oct-09 06:31N 43°22' W 003°05'0 0.0
2017-Oct-09 05:58N 43°22' W 003°05'0 0.0
2017-Oct-09 05:30N 43°22' W 003°05'0 0.0
2017-Oct-09 04:55N 43°22' W 003°05'0 0.0
2017-Oct-09 04:28N 43°22' W 003°05'0 0.0
2017-Oct-09 03:55N 43°22' W 003°05'0 0.0
2017-Oct-09 03:28N 43°22' W 003°05'0 0.0
2017-Oct-09 02:58N 43°22' W 003°05'0 0.0
2017-Oct-09 02:28N 43°22' W 003°05'0 0.0
2017-Oct-09 01:58N 43°22' W 003°05'0 0.0
2017-Oct-09 01:28N 43°22' W 003°05'0 0.0
2017-Oct-09 00:58N 43°22' W 003°05'0 0.0
2017-Oct-09 00:28N 43°22' W 003°05'0 0.0
2017-Oct-08 23:55N 43°22' W 003°05'0 0.0
2017-Oct-08 23:28N 43°22' W 003°05'0 0.0
2017-Oct-08 22:58N 43°22' W 003°05'0 0.0
2017-Oct-08 22:28N 43°22' W 003°05'0 0.0
2017-Oct-08 21:58N 43°22' W 003°05'0 0.0
2017-Oct-08 14:32N 43°22' W 003°05'0 0.0
2017-Oct-08 14:29N 43°22' W 003°05'0 0.0
2017-Oct-08 13:59N 43°22' W 003°05'0 0.0
2017-Oct-08 13:29N 43°22' W 003°05'0 0.0
2017-Oct-08 12:57N 43°22' W 003°05'0 0.1
2017-Oct-08 12:30N 43°22' W 003°05'2 4.1
2017-Oct-08 12:00N 43°24' W 003°06'3 5.9
2017-Oct-08 11:30N 43°27' W 003°04'612.1
2017-Oct-08 11:00N 43°31' W 002°58'612.4
2017-Oct-08 10:30N 43°32' W 002°50'612.4
2017-Oct-08 10:01N 43°34' W 002°42'612.4
2017-Oct-08 09:30N 43°35' W 002°33'612.5
2017-Oct-08 09:00N 43°35' W 002°25'713.4
2017-Oct-08 08:30N 43°36' W 002°15'1913.4
2017-Oct-08 07:05N 43°36' W 001°49'713.2
2017-Oct-08 06:35N 43°34' W 001°41'212.6
2017-Oct-08 06:25N 43°33' W 001°38'6 1.2
2017-Oct-08 01:58N 43°32' W 001°30'0 0.0
2017-Oct-08 01:28N 43°32' W 001°30'0 0.0
2017-Oct-08 00:58N 43°32' W 001°30'0 0.0
2017-Oct-08 00:28N 43°32' W 001°30'0 0.0
2017-Oct-07 23:52N 43°32' W 001°30'0 0.0
2017-Oct-07 23:25N 43°32' W 001°30'0 0.0
2017-Oct-07 22:52N 43°32' W 001°30'0 0.0
2017-Oct-07 22:28N 43°32' W 001°30'0 0.0
2017-Oct-07 22:00N 43°32' W 001°30'0 0.0
2017-Oct-07 21:30N 43°32' W 001°30'0 0.0
2017-Oct-07 21:00N 43°32' W 001°30'0 0.0
2017-Oct-07 20:24N 43°32' W 001°30'0 0.0
2017-Oct-07 20:00N 43°32' W 001°30'0 0.0
2017-Oct-07 19:30N 43°32' W 001°30'0 0.0
2017-Oct-07 19:00N 43°32' W 001°30'0 0.0
2017-Oct-07 18:30N 43°32' W 001°30'0 0.0
2017-Oct-07 18:00N 43°32' W 001°30'0 0.0
2017-Oct-07 17:30N 43°32' W 001°30'0 0.0
2017-Oct-07 17:00N 43°32' W 001°30'0 0.0
2017-Oct-07 16:28N 43°32' W 001°30'0 0.0
2017-Oct-07 15:59N 43°32' W 001°30'0 0.0
2017-Oct-07 15:26N 43°32' W 001°30'0 0.0
2017-Oct-07 14:59N 43°32' W 001°30'0 0.0
2017-Oct-07 14:28N 43°32' W 001°30'0 0.0
2017-Oct-07 13:58N 43°32' W 001°30'0 0.0
2017-Oct-07 13:25N 43°32' W 001°30'0 0.0
2017-Oct-07 13:00N 43°32' W 001°30'0 0.0
2017-Oct-07 12:30N 43°32' W 001°30'0 0.0
2017-Oct-07 12:00N 43°32' W 001°30'0 0.0
2017-Oct-07 11:30N 43°32' W 001°30'0 0.0
2017-Oct-07 10:59N 43°32' W 001°30'0 0.0
2017-Oct-07 10:29N 43°32' W 001°30'0 0.0
2017-Oct-07 09:59N 43°32' W 001°30'0 0.0
2017-Oct-07 09:23N 43°32' W 001°30'0 0.0
2017-Oct-07 08:58N 43°32' W 001°30'0 0.0
2017-Oct-07 08:30N 43°32' W 001°30'0 0.0
2017-Oct-07 07:59N 43°32' W 001°30'0 0.0
2017-Oct-07 07:26N 43°32' W 001°30'0 0.0
2017-Oct-07 07:00N 43°32' W 001°30'0 0.0
2017-Oct-07 06:30N 43°32' W 001°30'1 1.1
2017-Oct-07 06:00N 43°32' W 001°31'3 6.0
2017-Oct-07 05:31N 43°33' W 001°35'4 7.1
2017-Oct-07 05:00N 43°34' W 001°40'611.7
2017-Oct-07 04:30N 43°37' W 001°47'4 8.3
2017-Oct-07 04:00N 43°38' W 001°52'1 1.2
2017-Oct-07 03:30N 43°38' W 001°53'1 1.5
2017-Oct-07 03:00N 43°38' W 001°52'1 2.1
2017-Oct-07 02:30N 43°39' W 001°53'1 1.8
2017-Oct-07 02:00N 43°38' W 001°53'1 2.0
2017-Oct-07 01:30N 43°39' W 001°53'1 1.6
2017-Oct-07 01:01N 43°38' W 001°53'1 1.1
2017-Oct-07 00:30N 43°39' W 001°54'1 2.3
2017-Oct-07 00:00N 43°40' W 001°55'1 1.4
2017-Oct-06 23:30N 43°40' W 001°55'1 2.4
2017-Oct-06 23:00N 43°39' W 001°55'1 2.2
2017-Oct-06 22:30N 43°38' W 001°54'0 0.2
2017-Oct-06 22:01N 43°38' W 001°54'0 0.6
2017-Oct-06 21:31N 43°38' W 001°54'1 2.7
2017-Oct-06 21:01N 43°38' W 001°52'0 0.2
2017-Oct-06 20:30N 43°38' W 001°52'0 0.4
2017-Oct-06 20:00N 43°38' W 001°52'0 0.4
2017-Oct-06 19:30N 43°38' W 001°53'0 0.2
2017-Oct-06 19:00N 43°38' W 001°53'1 2.5
2017-Oct-06 18:30N 43°37' W 001°51'0 0.5
2017-Oct-06 18:00N 43°38' W 001°51'1 2.2
2017-Oct-06 17:30N 43°38' W 001°52'  

Dump ship's entire track history